Terminal Aerodrome Forecast
Issued by NWS Quad Cities IA IL

Home | Current Version | Previous Version | Text Only | Print | Product List | Glossary On
Versions: 1 2 3 4 5 6 7 8 9 10 11 12 13 14 15 16 17 18 19 20 21
000
FTUS43 KDVN 301737
TAFDBQ
TAF
KDBQ 301737Z 3018/0118 01009KT 6SM HZ SCT020 BKN250
      TEMPO 3019/3021 6SM HZ BKN020
     FM010000 02004KT 6SM HZ SCT020 BKN250
     FM010300 06003KT 6SM HZ SCT020 BKN250
     FM010700 VRB03KT 6SM BR SCT020 BKN250
     FM011200 07005KT 6SM BR SCT020 BKN250=

USA.gov is the U.S. government's official web portal to all federal, state and local government web resources and services.